Time;durP1;ratioP1;P1;durP2;ratioP2;P2;SDS_P1;SDS_P2;PMS_P1;PMS_P2;Temp;Humidity;BMP_temperature;BMP_pressure;BME280_temperature;BME280_humidity;BME280_pressure;Samples;Min_cycle;Max_cycle;Signal;HPM_P1;HPM_P2
2021/10/04 00:01:53;;;;;;;11.10;7.50;;;18.00;99.90;;;;;;5022402;28;20033;-67
2021/10/04 00:04:19;;;;;;;12.30;8.00;;;17.70;99.90;;;;;;5014365;28;20111;-67
2021/10/04 00:06:44;;;;;;;13.10;7.47;;;17.70;99.90;;;;;;5024047;28;20043;-67
2021/10/04 00:09:10;;;;;;;10.95;7.40;;;17.40;99.90;;;;;;5033745;28;20131;-66
2021/10/04 00:11:35;;;;;;;12.15;7.30;;;18.20;99.90;;;;;;5033425;28;20560;-66
2021/10/04 00:14:01;;;;;;;12.15;7.03;;;17.60;99.90;;;;;;5033497;28;20033;-67
2021/10/04 00:16:27;;;;;;;10.13;6.63;;;;;;;;;;5034129;28;20020;-66
2021/10/04 00:18:52;;;;;;;17.05;6.63;;;18.00;99.90;;;;;;5031317;28;20460;-67
2021/10/04 00:21:17;;;;;;;11.30;6.30;;;17.80;99.90;;;;;;5033272;28;20822;-66
2021/10/04 00:23:43;;;;;;;7.78;5.88;;;17.60;99.90;;;;;;5033087;28;20059;-67
2021/10/04 00:26:09;;;;;;;9.15;6.00;;;;;;;;;;5030997;28;20045;-67
2021/10/04 00:28:34;;;;;;;9.27;5.97;;;17.60;99.90;;;;;;5012616;28;20033;-67
2021/10/04 00:31:00;;;;;;;10.70;6.25;;;;;;;;;;5033435;28;20506;-67
2021/10/04 00:33:26;;;;;;;9.25;5.50;;;17.90;99.90;;;;;;5030577;28;20026;-66
2021/10/04 00:35:51;;;;;;;6.95;5.15;;;17.40;99.90;;;;;;5011407;28;20107;-67
2021/10/04 00:38:17;;;;;;;9.40;5.85;;;17.50;99.90;;;;;;5031828;28;20040;-67
2021/10/04 00:40:42;;;;;;;7.85;5.40;;;17.50;99.90;;;;;;5032878;28;20112;-66
2021/10/04 00:43:08;;;;;;;7.18;4.88;;;18.00;99.90;;;;;;5032651;28;20050;-67
2021/10/04 00:45:33;;;;;;;10.52;5.15;;;17.70;99.90;;;;;;5031085;28;20404;-66
2021/10/04 00:47:58;;;;;;;7.72;4.63;;;17.40;99.90;;;;;;5033912;28;20102;-67
2021/10/04 00:50:24;;;;;;;5.60;4.05;;;17.60;99.90;;;;;;5030717;28;20036;-66
2021/10/04 00:52:49;;;;;;;6.30;4.30;;;17.40;99.90;;;;;;5033681;28;20060;-66
2021/10/04 00:55:15;;;;;;;6.90;4.13;;;17.40;99.90;;;;;;5033561;28;20029;-67
2021/10/04 00:57:40;;;;;;;4.38;3.25;;;18.70;99.90;;;;;;5031369;28;20520;-67
2021/10/04 01:00:06;;;;;;;5.20;3.42;;;17.50;99.90;;;;;;5033722;28;20028;-67
2021/10/04 01:02:31;;;;;;;4.95;3.42;;;17.50;99.90;;;;;;5013306;28;20069;-67
2021/10/04 01:04:57;;;;;;;4.65;2.90;;;17.40;99.90;;;;;;5033137;28;20047;-67
2021/10/04 01:07:23;;;;;;;5.43;3.22;;;;;;;;;;5029480;28;20084;-66
2021/10/04 01:09:48;;;;;;;3.45;2.55;;;17.30;99.90;;;;;;5033012;28;20037;-67
2021/10/04 01:12:14;;;;;;;3.72;2.65;;;17.30;99.90;;;;;;5011111;28;20076;-66
2021/10/04 01:14:39;;;;;;;4.47;2.80;;;17.20;99.90;;;;;;5011123;28;20018;-67
2021/10/04 01:17:04;;;;;;;7.72;2.38;;;16.90;99.90;;;;;;5011588;28;20029;-67
2021/10/04 01:19:30;;;;;;;4.95;2.65;;;;;;;;;;5023456;28;20519;-67
2021/10/04 01:21:56;;;;;;;3.85;2.08;;;;;;;;;;5019730;28;20508;-67
2021/10/04 01:24:22;;;;;;;3.03;1.98;;;;;;;;;;5033835;28;20602;-66
2021/10/04 01:26:48;;;;;;;4.85;2.08;;;;;;;;;;5030270;28;20045;-67
2021/10/04 01:29:15;;;;;;;2.10;1.60;;;17.50;99.90;;;;;;5031003;28;20028;-67
2021/10/04 01:31:41;;;;;;;2.55;1.77;;;;;;;;;;5029129;28;20037;-66
2021/10/04 01:34:07;;;;;;;2.33;1.65;;;17.10;99.90;;;;;;5031001;28;20029;-66
2021/10/04 01:36:33;;;;;;;3.47;1.95;;;;;;;;;;5030926;28;20844;-67
2021/10/04 01:38:59;;;;;;;5.30;2.00;;;16.60;99.90;;;;;;5021155;28;20140;-66
2021/10/04 01:41:25;;;;;;;3.63;1.90;;;16.70;99.90;;;;;;5021141;28;20044;-66
2021/10/04 01:43:50;;;;;;;2.35;1.80;;;16.60;99.90;;;;;;5030911;28;20039;-67
2021/10/04 01:46:16;;;;;;;2.45;1.50;;;16.60;99.90;;;;;;5029476;28;20037;-66
2021/10/04 01:48:41;;;;;;;2.60;1.40;;;17.40;99.90;;;;;;5032472;28;20377;-67
2021/10/04 01:51:07;;;;;;;2.40;1.58;;;16.50;99.90;;;;;;5036494;28;20033;-67
2021/10/04 01:53:32;;;;;;;1.90;1.50;;;16.80;99.90;;;;;;5031655;28;20029;-68
2021/10/04 01:56:00;;;;;;;1.75;1.45;;;16.50;99.90;;;;;;5032317;28;20028;-69
2021/10/04 01:58:26;;;;;;;2.72;1.27;;;;;;;;;;5030384;28;20110;-68
2021/10/04 02:00:51;;;;;;;2.13;1.30;;;15.60;99.90;;;;;;5031092;28;20144;-69
2021/10/04 02:03:17;;;;;;;2.40;1.30;;;15.50;99.90;;;;;;5029861;28;20044;-69
2021/10/04 02:05:42;;;;;;;1.42;1.02;;;16.30;99.90;;;;;;5032223;28;20037;-69
2021/10/04 02:08:08;;;;;;;5.50;1.40;;;15.10;99.90;;;;;;5011760;28;20033;-69
2021/10/04 02:10:33;;;;;;;1.50;1.23;;;16.30;99.90;;;;;;5030332;28;20033;-67
2021/10/04 02:13:00;;;;;;;3.53;1.30;;;;;;;;;;5011155;28;20041;-67
2021/10/04 02:15:26;;;;;;;1.23;1.13;;;16.20;99.90;;;;;;5011401;28;20045;-66
2021/10/04 02:17:52;;;;;;;1.40;1.23;;;;;;;;;;5019698;28;20114;-67
2021/10/04 02:20:18;;;;;;;3.28;0.88;;;;;;;;;;5030700;28;20033;-68
2021/10/04 02:22:43;;;;;;;1.58;1.20;;;16.30;99.90;;;;;;5028284;28;20030;-67
2021/10/04 02:25:09;;;;;;;1.38;1.20;;;16.10;99.90;;;;;;5020582;28;20102;-68
2021/10/04 02:27:34;;;;;;;1.45;1.00;;;16.10;99.90;;;;;;5030226;28;20075;-67
2021/10/04 02:29:59;;;;;;;1.35;0.80;;;16.20;99.90;;;;;;5031797;28;20041;-67
2021/10/04 02:32:25;;;;;;;1.45;1.00;;;16.50;99.90;;;;;;5029604;28;20029;-68
2021/10/04 02:34:50;;;;;;;1.10;0.90;;;16.80;99.90;;;;;;5015135;28;20499;-69
2021/10/04 02:37:16;;;;;;;0.85;0.75;;;16.10;99.90;;;;;;5029811;28;20137;-69
2021/10/04 02:39:44;;;;;;;0.80;0.80;;;16.10;99.90;;;;;;5032405;28;20032;-68
2021/10/04 02:42:10;;;;;;;1.85;1.10;;;16.00;99.90;;;;;;5030408;28;20568;-69
2021/10/04 02:44:35;;;;;;;1.90;0.82;;;16.00;99.90;;;;;;5029739;28;20069;-66
2021/10/04 02:47:01;;;;;;;0.80;0.70;;;15.90;99.90;;;;;;5027938;28;20790;-66
2021/10/04 02:49:26;;;;;;;2.38;1.35;;;15.90;99.90;;;;;;5031483;28;20029;-66
2021/10/04 02:51:52;;;;;;;3.38;1.38;;;15.80;99.90;;;;;;5030755;28;20033;-68
2021/10/04 02:54:17;;;;;;;2.03;0.90;;;15.70;99.90;;;;;;5028624;28;20026;-68
2021/10/04 02:56:43;;;;;;;7.13;3.58;;;15.60;99.90;;;;;;5030985;28;20642;-68
2021/10/04 02:59:11;;;;;;;2.85;2.05;;;15.50;99.90;;;;;;5031966;28;20033;-68
2021/10/04 03:01:36;;;;;;;0.70;0.70;;;16.00;99.90;;;;;;5029434;28;20041;-68
2021/10/04 03:04:02;;;;;;;0.93;0.50;;;15.70;99.90;;;;;;5031644;28;20029;-68
2021/10/04 03:06:27;;;;;;;1.58;0.65;;;15.40;99.90;;;;;;5030206;28;20041;-68
2021/10/04 03:08:52;;;;;;;0.43;0.43;;;15.30;99.90;;;;;;5027195;28;20032;-68
2021/10/04 03:11:18;;;;;;;1.95;0.50;;;15.20;99.90;;;;;;5009288;28;20072;-68
2021/10/04 03:13:43;;;;;;;1.17;0.70;;;15.20;99.90;;;;;;5009174;28;20034;-68
2021/10/04 03:16:09;;;;;;;0.55;0.40;;;15.10;99.90;;;;;;5034005;28;20071;-68
2021/10/04 03:18:34;;;;;;;0.20;0.20;;;15.10;99.90;;;;;;5030948;28;20041;-68
2021/10/04 03:21:00;;;;;;;0.57;0.50;;;15.10;99.90;;;;;;5004922;28;20041;-68
2021/10/04 03:23:25;;;;;;;0.32;0.32;;;15.00;99.90;;;;;;5015201;28;20041;-66
2021/10/04 03:25:51;;;;;;;0.85;0.63;;;15.00;99.90;;;;;;5031206;28;20757;-66
2021/10/04 03:28:17;;;;;;;0.45;0.45;;;15.00;99.90;;;;;;5031684;28;20044;-66
2021/10/04 03:30:42;;;;;;;1.00;0.30;;;15.10;99.90;;;;;;5031803;28;20037;-67
2021/10/04 03:33:09;;;;;;;1.58;1.25;;;;;;;;;;5040694;28;20047;-67
2021/10/04 03:35:35;;;;;;;1.35;0.90;;;15.00;99.90;;;;;;5033749;28;20044;-67
2021/10/04 03:38:00;;;;;;;1.05;0.90;;;15.10;99.90;;;;;;5033526;28;20029;-66
2021/10/04 03:40:26;;;;;;;0.40;0.35;;;14.90;99.90;;;;;;5035957;28;20027;-69
2021/10/04 03:42:52;;;;;;;4.43;0.90;;;14.90;99.90;;;;;;5023476;28;20653;-68
2021/10/04 03:45:17;;;;;;;0.80;0.40;;;15.00;99.90;;;;;;5030612;28;20400;-68
2021/10/04 03:47:43;;;;;;;0.20;0.20;;;15.00;99.90;;;;;;5034032;28;20037;-68
2021/10/04 03:50:08;;;;;;;0.80;0.20;;;14.90;99.90;;;;;;5037024;28;20124;-68
2021/10/04 03:52:34;;;;;;;0.45;0.30;;;14.90;99.90;;;;;;5033312;28;20660;-68
2021/10/04 03:55:00;;;;;;;0.32;0.22;;;;;;;;;;5034690;28;20130;-68
2021/10/04 03:57:26;;;;;;;0.30;0.30;;;15.10;99.90;;;;;;5032279;28;20128;-68
2021/10/04 03:59:51;;;;;;;0.30;0.30;;;;;;;;;;5033595;28;20033;-68
2021/10/04 04:02:17;;;;;;;0.20;0.20;;;15.00;99.90;;;;;;5033437;28;20039;-68
2021/10/04 04:04:43;;;;;;;0.30;0.30;;;14.90;99.90;;;;;;5033550;28;20036;-68
2021/10/04 04:07:08;;;;;;;0.85;0.30;;;14.90;99.90;;;;;;5030036;28;20056;-68
2021/10/04 04:09:34;;;;;;;0.73;0.30;;;14.90;99.90;;;;;;5031717;28;20516;-69
2021/10/04 04:11:59;;;;;;;0.75;0.30;;;14.60;99.90;;;;;;5035863;28;20039;-69
2021/10/04 04:14:25;;;;;;;0.47;0.40;;;15.10;99.90;;;;;;5033997;28;20041;-69
2021/10/04 04:16:50;;;;;;;0.88;0.40;;;14.80;99.90;;;;;;5035461;28;20030;-69
2021/10/04 04:19:16;;;;;;;0.98;0.50;;;13.10;99.90;;;;;;5037494;28;20115;-68
2021/10/04 04:21:42;;;;;;;1.75;0.45;;;14.80;99.90;;;;;;5036017;28;20033;-68
2021/10/04 04:24:08;;;;;;;0.68;0.25;;;14.80;99.90;;;;;;5021938;28;20041;-68
2021/10/04 04:26:33;;;;;;;0.25;0.25;;;15.10;99.90;;;;;;5034519;28;20033;-68
2021/10/04 04:28:58;;;;;;;0.70;0.30;;;14.70;99.90;;;;;;5032689;28;20044;-68
2021/10/04 04:31:24;;;;;;;0.30;0.30;;;14.80;99.90;;;;;;5020213;28;20029;-68
2021/10/04 04:33:50;;;;;;;1.45;0.35;;;14.90;99.90;;;;;;5039380;28;20025;-68
2021/10/04 04:36:15;;;;;;;3.22;0.43;;;14.70;99.90;;;;;;5020693;28;20055;-69
2021/10/04 04:38:41;;;;;;;0.40;0.40;;;14.70;99.90;;;;;;5031285;28;20065;-68
2021/10/04 04:41:06;;;;;;;3.38;0.40;;;14.70;99.90;;;;;;5033260;28;20033;-67
2021/10/04 04:43:32;;;;;;;1.60;0.40;;;;;;;;;;5019502;28;20037;-66
2021/10/04 04:45:58;;;;;;;0.45;0.45;;;;;;;;;;5034983;28;20037;-68
2021/10/04 04:48:24;;;;;;;2.40;0.75;;;;;;;;;;5036536;28;20040;-69
2021/10/04 04:50:50;;;;;;;0.43;0.20;;;;;;;;;;5015510;28;20068;-68
2021/10/04 04:53:16;;;;;;;2.08;0.30;;;;;;;;;;5016952;28;20061;-68
2021/10/04 04:55:42;;;;;;;0.43;0.38;;;;;;;;;;5035094;28;20392;-66
2021/10/04 04:58:08;;;;;;;0.63;0.52;;;;;;;;;;5036382;28;20373;-68
2021/10/04 05:00:34;;;;;;;0.38;0.30;;;;;;;;;;5036797;28;20441;-69
2021/10/04 05:03:00;;;;;;;0.20;0.20;;;;;;;;;;5035375;28;20040;-69
2021/10/04 05:05:26;;;;;;;0.63;0.35;;;;;;;;;;5039870;28;20040;-69
2021/10/04 05:07:52;;;;;;;0.50;0.30;;;;;;;;;;5020329;28;20029;-68
2021/10/04 05:10:18;;;;;;;0.80;0.70;;;;;;;;;;5018933;28;20029;-68
2021/10/04 05:12:44;;;;;;;0.60;0.50;;;;;;;;;;5016146;28;20028;-68
2021/10/04 05:15:10;;;;;;;2.83;0.50;;;;;;;;;;5037774;28;20037;-69
2021/10/04 05:17:36;;;;;;;0.70;0.50;;;;;;;;;;5019865;28;20033;-68
2021/10/04 05:20:02;;;;;;;0.40;0.40;;;;;;;;;;5037628;28;20586;-68
2021/10/04 05:22:28;;;;;;;0.50;0.32;;;;;;;;;;5038229;28;20033;-68
2021/10/04 05:24:55;;;;;;;0.45;0.30;;;;;;;;;;5020060;28;20539;-68
2021/10/04 05:27:21;;;;;;;0.30;0.30;;;;;;;;;;5017271;28;20046;-68
2021/10/04 05:29:47;;;;;;;1.00;0.38;;;;;;;;;;5030801;28;20041;-68
2021/10/04 05:32:13;;;;;;;0.77;0.45;;;;;;;;;;5010809;28;20033;-68
2021/10/04 05:34:40;;;;;;;0.55;0.45;;;;;;;;;;5028217;28;20664;-68
2021/10/04 05:37:06;;;;;;;3.55;0.50;;;;;;;;;;5021266;28;20029;-68
2021/10/04 05:39:32;;;;;;;0.30;0.30;;;;;;;;;;5029795;28;20041;-68
2021/10/04 05:41:58;;;;;;;0.40;0.30;;;;;;;;;;5032707;28;20047;-68
2021/10/04 05:44:24;;;;;;;0.60;0.47;;;;;;;;;;5015781;28;20038;-68
2021/10/04 05:46:49;;;;;;;1.10;0.40;;;;;;;;;;5014939;28;20037;-68
2021/10/04 05:49:15;;;;;;;0.50;0.50;;;;;;;;;;5031665;28;20183;-68
2021/10/04 05:51:41;;;;;;;0.43;0.30;;;;;;;;;;5034820;28;20039;-68
2021/10/04 05:54:07;;;;;;;0.28;0.28;;;;;;;;;;5031946;28;20108;-68
2021/10/04 05:56:33;;;;;;;0.40;0.40;;;;;;;;;;5032129;28;20056;-68
2021/10/04 05:58:59;;;;;;;1.10;0.40;;;;;;;;;;5033598;28;20044;-68
2021/10/04 06:01:25;;;;;;;5.90;0.40;;;;;;;;;;5039249;28;20029;-68
2021/10/04 06:03:51;;;;;;;3.50;0.55;;;;;;;;;;5022079;28;20674;-69
2021/10/04 06:06:17;;;;;;;5.20;0.60;;;;;;;;;;5037273;28;20374;-68
2021/10/04 06:08:43;;;;;;;2.75;0.40;;;;;;;;;;5034197;28;20029;-68
2021/10/04 06:11:09;;;;;;;0.30;0.30;;;;;;;;;;5033228;28;20056;-68
2021/10/04 06:13:35;;;;;;;0.50;0.40;;;;;;;;;;5022331;28;20041;-68
2021/10/04 06:16:01;;;;;;;0.82;0.32;;;;;;;;;;5032436;28;20029;-67
2021/10/04 06:18:27;;;;;;;0.82;0.43;;;;;;;;;;5032695;28;20029;-66
2021/10/04 06:20:53;;;;;;;1.20;0.40;;;;;;;;;;5033402;28;20696;-68
2021/10/04 06:23:19;;;;;;;0.43;0.40;;;;;;;;;;5035754;28;20040;-69
2021/10/04 06:25:45;;;;;;;2.35;1.50;;;;;;;;;;5022409;28;20032;-68
2021/10/04 06:28:11;;;;;;;0.77;0.73;;;;;;;;;;5031095;28;20041;-68
2021/10/04 06:30:37;;;;;;;0.75;0.65;;;;;;;;;;5031169;28;20063;-68
2021/10/04 06:33:03;;;;;;;1.17;0.30;;;;;;;;;;5033410;28;20435;-68
2021/10/04 06:35:29;;;;;;;1.85;0.40;;;;;;;;;;5010425;28;20436;-68
2021/10/04 06:37:55;;;;;;;4.28;0.70;;;;;;;;;;5034048;28;20059;-68
2021/10/04 06:40:21;;;;;;;0.88;0.40;;;;;;;;;;5014391;28;20033;-68
2021/10/04 06:42:47;;;;;;;2.97;0.50;;;;;;;;;;5032027;28;20748;-68
2021/10/04 06:45:13;;;;;;;1.90;0.40;;;;;;;;;;5012495;28;20749;-68
2021/10/04 06:47:39;;;;;;;2.60;0.43;;;;;;;;;;5033342;28;20049;-68
2021/10/04 06:50:05;;;;;;;0.30;0.30;;;;;;;;;;5033464;28;20535;-68
2021/10/04 06:52:31;;;;;;;1.80;0.40;;;;;;;;;;5037654;28;20025;-68
2021/10/04 06:54:59;;;;;;;1.55;0.50;;;;;;;;;;5036859;28;20488;-68
2021/10/04 06:57:25;;;;;;;0.38;0.30;;;;;;;;;;5039753;28;20059;-68
2021/10/04 06:59:51;;;;;;;1.60;0.32;;;;;;;;;;5022262;28;20025;-68
2021/10/04 07:02:17;;;;;;;0.50;0.40;;;;;;;;;;5022823;28;20033;-68
2021/10/04 07:04:43;;;;;;;1.33;0.50;;;;;;;;;;5026124;28;20123;-68
2021/10/04 07:07:10;;;;;;;1.27;0.60;;;;;;;;;;5037135;28;20033;-68
2021/10/04 07:09:36;;;;;;;4.03;0.50;;;;;;;;;;5040069;28;20029;-68
2021/10/04 07:12:02;;;;;;;2.22;0.82;;;;;;;;;;5039237;28;20040;-68
2021/10/04 07:14:28;;;;;;;0.82;0.45;;;;;;;;;;5037229;28;20066;-68
2021/10/04 07:16:55;;;;;;;2.60;0.88;;;;;;;;;;5037466;28;20148;-68
2021/10/04 07:19:21;;;;;;;5.22;1.13;;;;;;;;;;5038368;28;20041;-68
2021/10/04 07:21:51;;;;;;;7.68;1.10;;;;;;;;;;5032864;28;20072;-68
2021/10/04 07:24:17;;;;;;;4.13;0.63;;;;;;;;;;5020469;28;20075;-68
2021/10/04 07:26:43;;;;;;;4.10;0.68;;;;;;;;;;5035986;28;20049;-68
2021/10/04 07:29:09;;;;;;;11.60;1.50;;;;;;;;;;5035611;28;20139;-68
2021/10/04 07:31:35;;;;;;;3.60;1.30;;;;;;;;;;5038759;28;20068;-68
2021/10/04 07:34:01;;;;;;;7.63;1.80;;;;;;;;;;5041244;28;20025;-68
2021/10/04 07:36:27;;;;;;;13.80;3.58;;;;;;;;;;5038718;28;20039;-68
2021/10/04 07:38:53;;;;;;;5.68;1.70;;;;;;;;;;5039709;28;20033;-69
2021/10/04 07:41:19;;;;;;;2.53;0.80;;;15.60;99.90;;;;;;5039558;28;20037;-68
2021/10/04 07:43:44;;;;;;;4.90;2.05;;;;;;;;;;5043062;28;20086;-68
2021/10/04 07:46:11;;;;;;;17.77;6.72;;;;;;;;;;5036133;28;20179;-68
2021/10/04 07:48:36;;;;;;;17.92;5.72;;;;;;;;;;5036709;28;20797;-68
2021/10/04 07:51:02;;;;;;;12.93;4.70;;;;;;;;;;5039343;28;20033;-66
2021/10/04 07:53:28;;;;;;;6.60;1.67;;;;;;;;;;5011786;28;20033;-67
2021/10/04 07:55:55;;;;;;;1.60;0.82;;;;;;;;;;5017358;28;20025;-67
2021/10/04 07:58:21;;;;;;;2.05;0.73;;;;;;;;;;5036053;28;20045;-67
2021/10/04 08:00:47;;;;;;;2.35;0.80;;;;;;;;;;5035077;28;20103;-67
2021/10/04 08:03:13;;;;;;;1.33;0.60;;;;;;;;;;5034979;28;20063;-67
2021/10/04 08:05:39;;;;;;;4.35;1.20;;;;;;;;;;5038512;28;20118;-67
2021/10/04 08:08:05;;;;;;;4.80;2.50;;;;;;;;;;5034468;28;20108;-67
2021/10/04 08:10:31;;;;;;;2.38;1.20;;;;;;;;;;5040731;28;20476;-67
2021/10/04 08:12:59;;;;;;;2.72;0.90;;;;;;;;;;5036325;28;20115;-67
2021/10/04 08:15:24;;;;;;;4.43;0.80;;;;;;;;;;5042634;28;20040;-67
2021/10/04 08:17:51;;;;;;;9.07;1.00;;;;;;;;;;5015073;28;20033;-68
2021/10/04 08:20:17;;;;;;;4.93;0.95;;;;;;;;;;5033848;28;20763;-68
2021/10/04 08:22:43;;;;;;;6.68;1.20;;;;;;;;;;5034091;28;20033;-67
2021/10/04 08:25:09;;;;;;;2.35;0.85;;;;;;;;;;5038980;28;20032;-67
2021/10/04 08:27:35;;;;;;;2.80;0.80;;;;;;;;;;5018354;28;20484;-67
2021/10/04 08:30:01;;;;;;;6.45;2.10;;;;;;;;;;5034172;28;20040;-67
2021/10/04 08:32:27;;;;;;;2.88;1.00;;;;;;;;;;5034243;28;20397;-67
2021/10/04 08:34:53;;;;;;;3.40;1.50;;;;;;;;;;5038163;28;20029;-67
2021/10/04 08:37:19;;;;;;;1.30;0.70;;;;;;;;;;5029563;28;20033;-67
2021/10/04 08:39:45;;;;;;;2.38;0.80;;;;;;;;;;5035040;28;20029;-67
2021/10/04 08:42:11;;;;;;;2.20;0.70;;;;;;;;;;5036568;28;20725;-67
2021/10/04 08:44:37;;;;;;;2.25;0.80;;;;;;;;;;5033618;28;20044;-67
2021/10/04 08:47:03;;;;;;;2.03;0.70;;;;;;;;;;5036380;28;20137;-67
2021/10/04 08:49:33;;;;;;;7.72;2.15;;;;;;;;;;5014970;28;20107;-67
2021/10/04 08:51:59;;;;;;;5.93;1.50;;;;;;;;;;5038556;28;20374;-67
2021/10/04 08:54:25;;;;;;;4.72;1.00;;;;;;;;;;5034491;28;20101;-67
2021/10/04 08:56:52;;;;;;;5.75;1.52;;;;;;;;;;5021425;28;20112;-67
2021/10/04 08:59:18;;;;;;;2.85;0.95;;;;;;;;;;5013825;28;20111;-67
2021/10/04 09:01:44;;;;;;;1.58;0.80;;;;;;;;;;5034191;28;20849;-68
2021/10/04 09:04:10;;;;;;;21.70;2.42;;;;;;;;;;5032926;28;20516;-67
2021/10/04 09:06:35;;;;;;;7.85;1.83;;;;;;;;;;5033882;28;20087;-67
2021/10/04 09:09:05;;;;;;;4.70;1.38;;;;;;;;;;5036069;28;20043;-67
2021/10/04 09:11:31;;;;;;;6.35;1.40;;;;;;;;;;5034562;28;20776;-67
2021/10/04 09:13:57;;;;;;;4.43;1.27;;;;;;;;;;5032851;28;20481;-68
2021/10/04 09:16:23;;;;;;;4.40;1.30;;;;;;;;;;5035558;28;20447;-68
2021/10/04 09:18:49;;;;;;;5.60;1.27;;;;;;;;;;5023317;28;20067;-69
2021/10/04 09:21:15;;;;;;;3.17;1.45;;;;;;;;;;5019252;28;20056;-68
2021/10/04 09:23:44;;;;;;;2.30;1.17;;;;;;;;;;5019609;28;20167;-68
2021/10/04 09:26:10;;;;;;;2.85;1.02;;;;;;;;;;5034503;28;20489;-69
2021/10/04 09:28:36;;;;;;;2.33;1.02;;;;;;;;;;5035575;28;20044;-68
2021/10/04 09:31:03;;;;;;;10.88;4.20;;;;;;;;;;5022265;28;20025;-68
2021/10/04 09:33:29;;;;;;;4.72;1.42;;;;;;;;;;5020076;28;20029;-68
2021/10/04 09:35:55;;;;;;;7.63;1.60;;;;;;;;;;5033666;28;20032;-68
2021/10/04 09:38:21;;;;;;;5.22;1.48;;;;;;;;;;5031327;28;20033;-68
2021/10/04 09:40:47;;;;;;;3.20;1.25;;;;;;;;;;5029868;28;20029;-68
2021/10/04 09:43:13;;;;;;;5.18;1.48;;;;;;;;;;5033939;28;20037;-68
2021/10/04 09:45:39;;;;;;;7.78;2.83;;;;;;;;;;5035768;28;20811;-68
2021/10/04 09:48:05;;;;;;;8.10;3.45;;;;;;;;;;5018723;28;20422;-68
2021/10/04 09:50:31;;;;;;;4.28;1.90;;;;;;;;;;5033601;28;20087;-68
2021/10/04 09:52:57;;;;;;;4.05;1.42;;;;;;;;;;5034766;28;20037;-68
2021/10/04 09:55:23;;;;;;;2.78;1.25;;;;;;;;;;5032049;28;20034;-68
2021/10/04 09:57:48;;;;;;;6.63;2.17;;;16.10;99.90;;;;;;5031639;28;20396;-68
2021/10/04 10:00:14;;;;;;;5.75;2.17;;;;;;;;;;5035766;28;20037;-69
2021/10/04 10:02:40;;;;;;;6.05;2.42;;;;;;;;;;5033971;28;20516;-69
2021/10/04 10:05:06;;;;;;;8.82;1.65;;;;;;;;;;5029427;28;20647;-69
2021/10/04 10:07:32;;;;;;;5.78;2.30;;;;;;;;;;5031497;28;20044;-69
2021/10/04 10:09:58;;;;;;;3.42;1.45;;;15.40;99.90;;;;;;5036812;28;20591;-68
2021/10/04 10:12:24;;;;;;;4.35;1.50;;;;;;;;;;5031078;28;20044;-69
2021/10/04 10:14:50;;;;;;;5.32;1.90;;;;;;;;;;5033218;28;20362;-69
2021/10/04 10:17:16;;;;;;;6.50;2.45;;;;;;;;;;5032860;28;20029;-69
2021/10/04 10:19:42;;;;;;;6.35;2.50;;;;;;;;;;5034647;28;20061;-69
2021/10/04 10:22:08;;;;;;;3.67;2.00;;;;;;;;;;5031417;28;20650;-69
2021/10/04 10:24:34;;;;;;;12.32;3.60;;;;;;;;;;5033857;28;20058;-69
2021/10/04 10:27:00;;;;;;;11.30;4.82;;;;;;;;;;5010971;28;20111;-68
2021/10/04 10:29:26;;;;;;;7.70;2.95;;;;;;;;;;5021704;28;20128;-69
2021/10/04 10:31:52;;;;;;;6.18;1.90;;;;;;;;;;5035579;28;20828;-69
2021/10/04 10:34:18;;;;;;;7.43;3.08;;;;;;;;;;5030048;28;20259;-69
2021/10/04 10:36:44;;;;;;;11.57;4.68;;;;;;;;;;5029116;28;20555;-69
2021/10/04 10:39:10;;;;;;;25.83;9.38;;;;;;;;;;5028158;28;20041;-69
2021/10/04 10:41:36;;;;;;;20.52;7.90;;;;;;;;;;5034890;28;20087;-69
2021/10/04 10:44:02;;;;;;;16.67;6.20;;;;;;;;;;5031558;28;20061;-69
2021/10/04 10:46:28;;;;;;;9.40;3.90;;;;;;;;;;5029340;28;20906;-69
2021/10/04 10:48:54;;;;;;;2.20;1.25;;;;;;;;;;5016613;28;20041;-69
2021/10/04 10:51:20;;;;;;;3.78;1.65;;;;;;;;;;5018897;28;20045;-69
2021/10/04 10:53:46;;;;;;;6.80;1.98;;;;;;;;;;5032152;28;20036;-68
2021/10/04 10:56:12;;;;;;;3.20;1.42;;;;;;;;;;5032396;28;20464;-69
2021/10/04 10:58:38;;;;;;;3.17;1.48;;;;;;;;;;5033617;28;20032;-68
2021/10/04 11:01:04;;;;;;;2.58;1.30;;;;;;;;;;5010479;28;20036;-69
2021/10/04 11:03:31;;;;;;;3.35;1.60;;;;;;;;;;5015335;28;20123;-68
2021/10/04 11:05:57;;;;;;;2.15;1.35;;;;;;;;;;5036013;28;20025;-69
2021/10/04 11:08:23;;;;;;;3.33;1.05;;;;;;;;;;5034596;28;20730;-69
2021/10/04 11:10:49;;;;;;;2.45;1.05;;;;;;;;;;5031646;28;20025;-69
2021/10/04 11:13:15;;;;;;;8.38;3.50;;;;;;;;;;5032291;28;20036;-70
2021/10/04 11:15:41;;;;;;;7.95;3.33;;;;;;;;;;5030991;28;20030;-69
2021/10/04 11:18:07;;;;;;;12.80;2.55;;;;;;;;;;5008324;28;20041;-69
2021/10/04 11:20:33;;;;;;;1.92;1.40;;;;;;;;;;5029044;28;20068;-67
2021/10/04 11:22:59;;;;;;;2.55;1.30;;;;;;;;;;5039039;28;20851;-69
2021/10/04 11:25:25;;;;;;;17.65;6.75;;;;;;;;;;5022281;28;20040;-69
2021/10/04 11:27:51;;;;;;;12.85;4.80;;;;;;;;;;5031373;28;20095;-69
2021/10/04 11:30:17;;;;;;;8.70;2.33;;;;;;;;;;5020759;28;20132;-69
2021/10/04 11:32:42;;;;;;;10.18;3.53;;;16.10;99.90;;;;;;5039449;28;20136;-69
2021/10/04 11:35:08;;;;;;;5.18;2.15;;;;;;;;;;5031641;28;20036;-69
2021/10/04 11:37:35;;;;;;;4.22;2.00;;;;;;;;;;5020009;28;20134;-68
2021/10/04 11:40:00;;;;;;;3.88;2.13;;;;;;;;;;5035436;28;20037;-69
2021/10/04 11:42:27;;;;;;;7.53;2.20;;;;;;;;;;5039520;28;20029;-69
2021/10/04 11:44:53;;;;;;;2.88;1.90;;;;;;;;;;5036872;28;20037;-69
2021/10/04 11:47:19;;;;;;;2.55;1.60;;;;;;;;;;5032112;28;20029;-69
2021/10/04 11:49:45;;;;;;;4.38;2.22;;;;;;;;;;5032201;28;20734;-69
2021/10/04 11:52:15;;;;;;;5.15;2.15;;;;;;;;;;5037702;28;20033;-69
2021/10/04 11:54:42;;;;;;;6.82;2.38;;;;;;;;;;5035247;28;20385;-68
2021/10/04 11:57:08;;;;;;;4.50;2.30;;;;;;;;;;5035287;28;20033;-68
2021/10/04 11:59:33;;;;;;;4.20;2.10;;;;;;;;;;5033506;28;20846;-68
2021/10/04 12:02:00;;;;;;;3.05;1.65;;;;;;;;;;5035923;28;20033;-68
2021/10/04 12:04:26;;;;;;;5.10;2.30;;;;;;;;;;5037374;28;20048;-68
2021/10/04 12:06:52;;;;;;;4.88;1.92;;;;;;;;;;5023839;28;20025;-68
2021/10/04 12:09:19;;;;;;;8.57;2.45;;;;;;;;;;5014654;28;20038;-68
2021/10/04 12:11:44;;;;;;;5.35;2.40;;;;;;;;;;5020790;28;20044;-68
2021/10/04 12:14:13;;;;;;;5.05;2.10;;;;;;;;;;5014195;28;20497;-68
2021/10/04 12:16:40;;;;;;;3.10;1.50;;;;;;;;;;5038039;28;20038;-68
2021/10/04 12:19:06;;;;;;;7.60;1.88;;;;;;;;;;5033664;28;20547;-69
2021/10/04 12:21:32;;;;;;;3.28;2.15;;;;;;;;;;5033323;28;20040;-68
2021/10/04 12:23:58;;;;;;;7.70;2.40;;;;;;;;;;5005595;28;20033;-69
2021/10/04 12:26:24;;;;;;;4.70;1.95;;;;;;;;;;5012774;28;20033;-68
2021/10/04 12:28:50;;;;;;;5.85;1.95;;;;;;;;;;5018475;28;20041;-68
2021/10/04 12:31:16;;;;;;;6.00;2.05;;;;;;;;;;5038535;28;20844;-68
2021/10/04 12:33:42;;;;;;;5.78;1.90;;;;;;;;;;5020692;28;20034;-69
2021/10/04 12:36:08;;;;;;;3.08;1.88;;;;;;;;;;5036395;28;20075;-69
2021/10/04 12:38:35;;;;;;;4.65;2.20;;;;;;;;;;5006469;28;20037;-69
2021/10/04 12:41:03;;;;;;;4.35;2.17;;;;;;;;;;5032298;28;20029;-69
2021/10/04 12:43:29;;;;;;;3.90;2.10;;;;;;;;;;5033577;28;20473;-69
2021/10/04 12:45:55;;;;;;;3.42;1.80;;;;;;;;;;5041037;28;20025;-70
2021/10/04 12:48:21;;;;;;;16.58;6.80;;;;;;;;;;5013827;28;20048;-69
2021/10/04 12:50:47;;;;;;;5.38;2.70;;;;;;;;;;5004164;28;20421;-69
2021/10/04 12:53:13;;;;;;;7.97;2.50;;;;;;;;;;5038366;28;20029;-69
2021/10/04 12:55:39;;;;;;;4.88;2.47;;;;;;;;;;5014014;28;20120;-69
2021/10/04 12:58:05;;;;;;;4.63;1.63;;;;;;;;;;5032154;28;20025;-69
2021/10/04 13:00:31;;;;;;;3.38;1.80;;;;;;;;;;5033101;28;20033;-68
2021/10/04 13:02:57;;;;;;;3.97;1.90;;;;;;;;;;5033259;28;20033;-69
2021/10/04 13:05:23;;;;;;;3.20;1.60;;;;;;;;;;5037812;28;20116;-69
2021/10/04 13:07:49;;;;;;;4.20;2.00;;;;;;;;;;5036515;28;20028;-69
2021/10/04 13:10:15;;;;;;;4.30;1.90;;;;;;;;;;5029335;28;20064;-69
2021/10/04 13:12:41;;;;;;;5.93;2.00;;;;;;;;;;5036869;28;20037;-69
2021/10/04 13:15:07;;;;;;;3.78;2.15;;;;;;;;;;5033033;28;20036;-69
2021/10/04 13:17:35;;;;;;;4.25;2.22;;;;;;;;;;5015877;28;20036;-69
2021/10/04 13:20:01;;;;;;;4.57;2.10;;;;;;;;;;5015777;28;20041;-69
2021/10/04 13:22:27;;;;;;;5.47;2.42;;;;;;;;;;5034555;28;20071;-69
2021/10/04 13:24:53;;;;;;;8.23;2.05;;;;;;;;;;5034388;28;20508;-69
2021/10/04 13:27:21;;;;;;;3.22;1.95;;;;;;;;;;5020657;28;20041;-69
2021/10/04 13:29:47;;;;;;;5.32;2.05;;;;;;;;;;5033054;28;20077;-69
2021/10/04 13:32:13;;;;;;;5.78;2.55;;;;;;;;;;5031360;28;20095;-69
2021/10/04 13:34:39;;;;;;;4.63;2.60;;;;;;;;;;5035533;28;20083;-69
2021/10/04 13:37:05;;;;;;;6.00;2.60;;;;;;;;;;5021324;28;20109;-69
2021/10/04 13:39:31;;;;;;;8.00;3.10;;;;;;;;;;5032862;28;20049;-69
2021/10/04 13:41:57;;;;;;;5.18;2.78;;;;;;;;;;5033613;28;20039;-68
2021/10/04 13:44:23;;;;;;;7.63;3.20;;;;;;;;;;5035123;28;20114;-69
2021/10/04 13:46:49;;;;;;;8.48;3.58;;;;;;;;;;5025976;28;20032;-69
2021/10/04 13:49:15;;;;;;;8.80;3.40;;;;;;;;;;5035557;28;20433;-69
2021/10/04 13:51:41;;;;;;;11.13;3.47;;;;;;;;;;5033410;28;20032;-69
2021/10/04 13:54:06;;;;;;;7.10;3.58;;;;;;;;;;5035579;28;20052;-69
2021/10/04 13:56:33;;;;;;;10.55;3.28;;;;;;;;;;5031355;28;20469;-69